sensor_id;sensor_type;location;lat;lon;timestamp;temperature;humidity
40556;DHT22;26250;45.422;11.100;2023-06-01T08:54:56;28.10;56.10
40556;DHT22;26250;45.422;11.100;2023-06-01T08:57:24;28.10;56.40
40556;DHT22;26250;45.422;11.100;2023-06-01T08:59:51;28.10;56.40
40556;DHT22;26250;45.422;11.100;2023-06-01T09:02:19;28.10;56.60
40556;DHT22;26250;45.422;11.100;2023-06-01T09:04:45;28.10;57.20
40556;DHT22;26250;45.422;11.100;2023-06-01T09:07:13;28.20;57.40
40556;DHT22;26250;45.422;11.100;2023-06-01T09:09:41;28.10;57.30
40556;DHT22;26250;45.422;11.100;2023-06-01T09:15:16;28.20;57.70
40556;DHT22;26250;45.422;11.100;2023-06-01T09:17:47;28.40;57.20
40556;DHT22;26250;45.422;11.100;2023-06-01T09:20:24;28.40;56.50
40556;DHT22;26250;45.422;11.100;2023-06-01T09:22:52;28.50;56.30
40556;DHT22;26250;45.422;11.100;2023-06-01T09:25:38;28.60;57.20
40556;DHT22;26250;45.422;11.100;2023-06-01T09:28:04;28.60;55.70
40556;DHT22;26250;45.422;11.100;2023-06-01T09:30:41;28.50;57.10
40556;DHT22;26250;45.422;11.100;2023-06-01T09:33:16;28.60;56.90
40556;DHT22;26250;45.422;11.100;2023-06-01T09:35:48;28.70;56.50
40556;DHT22;26250;45.422;11.100;2023-06-01T09:38:22;28.70;56.80
40556;DHT22;26250;45.422;11.100;2023-06-01T09:41:01;28.80;55.70
40556;DHT22;26250;45.422;11.100;2023-06-01T09:43:29;28.80;55.60
40556;DHT22;26250;45.422;11.100;2023-06-01T09:46:11;28.70;54.50
40556;DHT22;26250;45.422;11.100;2023-06-01T09:48:41;28.50;54.70
40556;DHT22;26250;45.422;11.100;2023-06-01T09:51:21;28.60;55.80
40556;DHT22;26250;45.422;11.100;2023-06-01T09:53:49;28.60;54.80
40556;DHT22;26250;45.422;11.100;2023-06-01T09:56:16;28.60;55.00
40556;DHT22;26250;45.422;11.100;2023-06-01T09:58:47;28.70;54.90
40556;DHT22;26250;45.422;11.100;2023-06-01T10:01:16;28.70;55.30
40556;DHT22;26250;45.422;11.100;2023-06-01T10:03:47;28.70;55.30
40556;DHT22;26250;45.422;11.100;2023-06-01T10:06:14;28.70;55.10
40556;DHT22;26250;45.422;11.100;2023-06-01T10:08:42;28.80;55.10
40556;DHT22;26250;45.422;11.100;2023-06-01T10:11:10;28.80;55.80
40556;DHT22;26250;45.422;11.100;2023-06-01T10:13:36;28.80;55.10
40556;DHT22;26250;45.422;11.100;2023-06-01T10:16:04;28.80;54.00
40556;DHT22;26250;45.422;11.100;2023-06-01T10:18:32;28.70;56.10
40556;DHT22;26250;45.422;11.100;2023-06-01T10:21:03;28.70;54.20
40556;DHT22;26250;45.422;11.100;2023-06-01T10:23:34;28.60;54.50
40556;DHT22;26250;45.422;11.100;2023-06-01T10:26:12;28.60;54.80
40556;DHT22;26250;45.422;11.100;2023-06-01T10:28:44;28.70;54.80
40556;DHT22;26250;45.422;11.100;2023-06-01T10:34:02;28.60;54.40
40556;DHT22;26250;45.422;11.100;2023-06-01T10:41:48;28.70;53.90
40556;DHT22;26250;45.422;11.100;2023-06-01T10:52:26;28.90;53.60
40556;DHT22;26250;45.422;11.100;2023-06-01T10:57:44;28.90;53.20
40556;DHT22;26250;45.422;11.100;2023-06-01T11:21:59;29.00;53.80
40556;DHT22;26250;45.422;11.100;2023-06-01T11:24:18;29.10;54.00
40556;DHT22;26250;45.422;11.100;2023-06-01T11:26:49;29.10;53.70
40556;DHT22;26250;45.422;11.100;2023-06-01T11:31:59;29.10;53.50
40556;DHT22;26250;45.422;11.100;2023-06-01T11:34:37;29.10;56.20
40556;DHT22;26250;45.422;11.100;2023-06-01T11:37:12;29.00;53.50
40556;DHT22;26250;45.422;11.100;2023-06-01T11:39:40;28.90;54.20
40556;DHT22;26250;45.422;11.100;2023-06-01T11:42:11;28.80;55.30
40556;DHT22;26250;45.422;11.100;2023-06-01T11:44:44;28.80;54.70
40556;DHT22;26250;45.422;11.100;2023-06-01T11:47:12;28.90;55.50
40556;DHT22;26250;45.422;11.100;2023-06-01T11:49:40;29.00;54.50
40556;DHT22;26250;45.422;11.100;2023-06-01T11:52:09;29.10;54.90
40556;DHT22;26250;45.422;11.100;2023-06-01T11:54:36;29.10;55.40
40556;DHT22;26250;45.422;11.100;2023-06-01T11:57:04;29.10;53.20
40556;DHT22;26250;45.422;11.100;2023-06-01T12:02:26;29.10;52.90
40556;DHT22;26250;45.422;11.100;2023-06-01T12:53:36;29.20;52.30
40556;DHT22;26250;45.422;11.100;2023-06-01T12:56:03;29.20;53.80
40556;DHT22;26250;45.422;11.100;2023-06-01T12:58:30;29.30;52.10
40556;DHT22;26250;45.422;11.100;2023-06-01T13:00:57;29.40;52.30
40556;DHT22;26250;45.422;11.100;2023-06-01T13:03:27;29.50;51.40
40556;DHT22;26250;45.422;11.100;2023-06-01T13:05:55;29.50;51.70
40556;DHT22;26250;45.422;11.100;2023-06-01T13:08:22;29.50;51.70
40556;DHT22;26250;45.422;11.100;2023-06-01T13:10:52;29.50;52.10
40556;DHT22;26250;45.422;11.100;2023-06-01T13:13:20;29.50;51.70
40556;DHT22;26250;45.422;11.100;2023-06-01T13:15:48;29.60;51.60
40556;DHT22;26250;45.422;11.100;2023-06-01T13:18:15;29.60;52.00
40556;DHT22;26250;45.422;11.100;2023-06-01T13:20:42;29.70;51.60
40556;DHT22;26250;45.422;11.100;2023-06-01T13:23:09;29.80;50.80
40556;DHT22;26250;45.422;11.100;2023-06-01T13:25:39;29.70;51.10
40556;DHT22;26250;45.422;11.100;2023-06-01T13:28:06;29.70;51.10
40556;DHT22;26250;45.422;11.100;2023-06-01T13:30:35;29.60;51.70
40556;DHT22;26250;45.422;11.100;2023-06-01T13:33:02;29.70;51.70
40556;DHT22;26250;45.422;11.100;2023-06-01T13:35:33;29.60;51.20
40556;DHT22;26250;45.422;11.100;2023-06-01T13:38:00;29.60;52.00
40556;DHT22;26250;45.422;11.100;2023-06-01T13:40:27;29.60;51.20
40556;DHT22;26250;45.422;11.100;2023-06-01T13:42:54;29.60;51.20
40556;DHT22;26250;45.422;11.100;2023-06-01T13:45:21;29.60;51.50
40556;DHT22;26250;45.422;11.100;2023-06-01T13:47:49;29.60;50.90
40556;DHT22;26250;45.422;11.100;2023-06-01T13:50:20;29.60;51.00
40556;DHT22;26250;45.422;11.100;2023-06-01T13:52:47;29.70;51.70
40556;DHT22;26250;45.422;11.100;2023-06-01T13:55:14;29.70;51.10
40556;DHT22;26250;45.422;11.100;2023-06-01T13:57:42;29.80;51.10
40556;DHT22;26250;45.422;11.100;2023-06-01T14:00:09;29.80;51.70
40556;DHT22;26250;45.422;11.100;2023-06-01T14:02:42;29.90;50.80
40556;DHT22;26250;45.422;11.100;2023-06-01T14:05:12;29.80;51.20
40556;DHT22;26250;45.422;11.100;2023-06-01T14:07:51;29.60;50.40
40556;DHT22;26250;45.422;11.100;2023-06-01T14:10:21;29.50;51.50
40556;DHT22;26250;45.422;11.100;2023-06-01T14:12:48;29.50;52.10
40556;DHT22;26250;45.422;11.100;2023-06-01T14:15:15;29.60;52.00
40556;DHT22;26250;45.422;11.100;2023-06-01T14:17:45;29.80;52.30
40556;DHT22;26250;45.422;11.100;2023-06-01T14:20:12;29.90;51.70
40556;DHT22;26250;45.422;11.100;2023-06-01T14:22:39;30.00;51.60
40556;DHT22;26250;45.422;11.100;2023-06-01T14:25:07;30.00;51.60
40556;DHT22;26250;45.422;11.100;2023-06-01T14:27:34;30.00;52.40
40556;DHT22;26250;45.422;11.100;2023-06-01T14:30:04;30.10;53.00
40556;DHT22;26250;45.422;11.100;2023-06-01T14:32:31;30.10;52.90
40556;DHT22;26250;45.422;11.100;2023-06-01T14:34:58;30.20;52.50
40556;DHT22;26250;45.422;11.100;2023-06-01T14:37:25;30.20;52.40
40556;DHT22;26250;45.422;11.100;2023-06-01T14:40:04;30.20;51.90
40556;DHT22;26250;45.422;11.100;2023-06-01T14:42:31;30.10;51.50
40556;DHT22;26250;45.422;11.100;2023-06-01T14:44:59;30.00;51.00
40556;DHT22;26250;45.422;11.100;2023-06-01T14:47:32;29.90;51.80
40556;DHT22;26250;45.422;11.100;2023-06-01T14:49:59;29.90;52.10
40556;DHT22;26250;45.422;11.100;2023-06-01T14:52:26;29.80;51.40
40556;DHT22;26250;45.422;11.100;2023-06-01T14:54:53;29.90;51.60
40556;DHT22;26250;45.422;11.100;2023-06-01T14:57:20;29.90;51.70
40556;DHT22;26250;45.422;11.100;2023-06-01T14:59:47;29.90;51.80
40556;DHT22;26250;45.422;11.100;2023-06-01T15:02:29;30.00;51.50
40556;DHT22;26250;45.422;11.100;2023-06-01T15:04:56;30.00;50.60
40556;DHT22;26250;45.422;11.100;2023-06-01T15:07:23;29.90;51.20
40556;DHT22;26250;45.422;11.100;2023-06-01T15:09:50;29.80;50.90
40556;DHT22;26250;45.422;11.100;2023-06-01T15:12:20;29.80;50.70
40556;DHT22;26250;45.422;11.100;2023-06-01T15:14:47;29.80;50.80
40556;DHT22;26250;45.422;11.100;2023-06-01T15:17:15;29.80;50.40
40556;DHT22;26250;45.422;11.100;2023-06-01T15:19:42;29.80;50.90
40556;DHT22;26250;45.422;11.100;2023-06-01T15:22:09;29.70;51.50
40556;DHT22;26250;45.422;11.100;2023-06-01T15:24:37;29.70;50.90
40556;DHT22;26250;45.422;11.100;2023-06-01T15:27:05;29.90;50.90
40556;DHT22;26250;45.422;11.100;2023-06-01T15:29:33;29.90;50.70
40556;DHT22;26250;45.422;11.100;2023-06-01T15:32:00;29.90;52.40
40556;DHT22;26250;45.422;11.100;2023-06-01T15:34:27;29.90;52.20
40556;DHT22;26250;45.422;11.100;2023-06-01T15:36:57;29.80;51.70
40556;DHT22;26250;45.422;11.100;2023-06-01T15:39:24;29.70;51.70
40556;DHT22;26250;45.422;11.100;2023-06-01T15:41:51;29.60;52.50
40556;DHT22;26250;45.422;11.100;2023-06-01T15:44:21;29.60;54.70
40556;DHT22;26250;45.422;11.100;2023-06-01T15:46:48;29.70;52.40
40556;DHT22;26250;45.422;11.100;2023-06-01T15:49:15;29.70;52.10
40556;DHT22;26250;45.422;11.100;2023-06-01T15:51:42;29.70;52.60
40556;DHT22;26250;45.422;11.100;2023-06-01T15:54:09;29.70;51.90
40556;DHT22;26250;45.422;11.100;2023-06-01T15:56:36;29.70;52.50
40556;DHT22;26250;45.422;11.100;2023-06-01T15:59:03;29.60;52.60
40556;DHT22;26250;45.422;11.100;2023-06-01T16:01:30;29.50;53.10
40556;DHT22;26250;45.422;11.100;2023-06-01T16:03:58;29.50;53.30
40556;DHT22;26250;45.422;11.100;2023-06-01T16:06:25;29.40;53.40
40556;DHT22;26250;45.422;11.100;2023-06-01T16:08:52;29.30;53.80
40556;DHT22;26250;45.422;11.100;2023-06-01T16:11:20;29.30;52.80
40556;DHT22;26250;45.422;11.100;2023-06-01T16:13:47;29.40;53.90
40556;DHT22;26250;45.422;11.100;2023-06-01T16:16:15;29.40;54.20
40556;DHT22;26250;45.422;11.100;2023-06-01T16:18:42;29.40;54.80
40556;DHT22;26250;45.422;11.100;2023-06-01T16:21:09;29.40;54.40
40556;DHT22;26250;45.422;11.100;2023-06-01T16:23:36;29.40;55.00
40556;DHT22;26250;45.422;11.100;2023-06-01T16:26:06;29.50;55.30
40556;DHT22;26250;45.422;11.100;2023-06-01T16:28:34;29.50;54.40
40556;DHT22;26250;45.422;11.100;2023-06-01T16:31:02;29.50;55.30
40556;DHT22;26250;45.422;11.100;2023-06-01T16:33:30;29.50;54.30
40556;DHT22;26250;45.422;11.100;2023-06-01T16:35:57;29.50;54.80
40556;DHT22;26250;45.422;11.100;2023-06-01T16:38:24;29.60;53.20
40556;DHT22;26250;45.422;11.100;2023-06-01T16:40:51;29.50;54.00
40556;DHT22;26250;45.422;11.100;2023-06-01T16:43:18;29.50;54.80
40556;DHT22;26250;45.422;11.100;2023-06-01T16:45:46;29.60;55.00
40556;DHT22;26250;45.422;11.100;2023-06-01T16:48:13;29.70;54.30
40556;DHT22;26250;45.422;11.100;2023-06-01T16:50:40;29.70;53.90
40556;DHT22;26250;45.422;11.100;2023-06-01T16:53:11;29.70;54.30
40556;DHT22;26250;45.422;11.100;2023-06-01T16:55:39;29.60;54.30
40556;DHT22;26250;45.422;11.100;2023-06-01T16:58:06;29.60;54.10
40556;DHT22;26250;45.422;11.100;2023-06-01T17:00:33;29.60;54.50
40556;DHT22;26250;45.422;11.100;2023-06-01T17:03:01;29.40;54.60
40556;DHT22;26250;45.422;11.100;2023-06-01T17:05:28;29.40;54.40
40556;DHT22;26250;45.422;11.100;2023-06-01T17:07:54;29.40;54.40
40556;DHT22;26250;45.422;11.100;2023-06-01T17:10:22;29.30;54.90
40556;DHT22;26250;45.422;11.100;2023-06-01T17:12:50;29.30;54.30
40556;DHT22;26250;45.422;11.100;2023-06-01T17:15:18;29.20;54.20
40556;DHT22;26250;45.422;11.100;2023-06-01T17:17:45;29.20;54.20
40556;DHT22;26250;45.422;11.100;2023-06-01T17:20:12;29.10;54.70
40556;DHT22;26250;45.422;11.100;2023-06-01T17:22:41;29.10;54.80
40556;DHT22;26250;45.422;11.100;2023-06-01T17:25:08;29.10;54.60
40556;DHT22;26250;45.422;11.100;2023-06-01T17:27:38;29.00;54.80
40556;DHT22;26250;45.422;11.100;2023-06-01T17:30:10;29.00;55.70
40556;DHT22;26250;45.422;11.100;2023-06-01T17:32:37;28.90;55.90
40556;DHT22;26250;45.422;11.100;2023-06-01T17:35:06;28.90;56.10
40556;DHT22;26250;45.422;11.100;2023-06-01T17:37:33;28.90;55.40
40556;DHT22;26250;45.422;11.100;2023-06-01T17:40:00;28.80;55.40
40556;DHT22;26250;45.422;11.100;2023-06-01T17:42:27;28.80;55.60
40556;DHT22;26250;45.422;11.100;2023-06-01T17:44:53;28.80;55.90
40556;DHT22;26250;45.422;11.100;2023-06-01T17:47:24;28.80;55.60
40556;DHT22;26250;45.422;11.100;2023-06-01T17:49:51;28.80;55.70
40556;DHT22;26250;45.422;11.100;2023-06-01T17:52:20;28.70;56.10
40556;DHT22;26250;45.422;11.100;2023-06-01T17:54:47;28.70;56.30
40556;DHT22;26250;45.422;11.100;2023-06-01T17:57:14;28.70;57.20
40556;DHT22;26250;45.422;11.100;2023-06-01T17:59:42;28.50;60.30
40556;DHT22;26250;45.422;11.100;2023-06-01T18:02:09;28.40;61.90
40556;DHT22;26250;45.422;11.100;2023-06-01T18:04:36;28.20;62.40
40556;DHT22;26250;45.422;11.100;2023-06-01T18:07:04;28.00;63.20
40556;DHT22;26250;45.422;11.100;2023-06-01T18:09:31;27.70;64.10
40556;DHT22;26250;45.422;11.100;2023-06-01T18:11:58;27.60;64.60
40556;DHT22;26250;45.422;11.100;2023-06-01T18:14:24;27.60;63.60
40556;DHT22;26250;45.422;11.100;2023-06-01T18:16:51;27.60;64.10
40556;DHT22;26250;45.422;11.100;2023-06-01T18:19:19;27.50;63.40
40556;DHT22;26250;45.422;11.100;2023-06-01T18:21:47;27.50;63.30
40556;DHT22;26250;45.422;11.100;2023-06-01T18:24:14;27.40;63.00
40556;DHT22;26250;45.422;11.100;2023-06-01T18:26:41;27.40;62.40
40556;DHT22;26250;45.422;11.100;2023-06-01T18:29:08;27.20;64.80
40556;DHT22;26250;45.422;11.100;2023-06-01T18:31:35;27.20;64.40
40556;DHT22;26250;45.422;11.100;2023-06-01T18:34:02;27.10;64.80
40556;DHT22;26250;45.422;11.100;2023-06-01T18:36:31;27.20;64.20
40556;DHT22;26250;45.422;11.100;2023-06-01T18:38:58;27.30;64.00
40556;DHT22;26250;45.422;11.100;2023-06-01T18:41:25;27.20;64.10
40556;DHT22;26250;45.422;11.100;2023-06-01T18:43:52;27.10;64.80
40556;DHT22;26250;45.422;11.100;2023-06-01T18:46:19;26.90;65.10
40556;DHT22;26250;45.422;11.100;2023-06-01T18:48:46;26.90;65.10
40556;DHT22;26250;45.422;11.100;2023-06-01T18:51:14;26.90;65.20
40556;DHT22;26250;45.422;11.100;2023-06-01T18:53:41;26.90;65.10
40556;DHT22;26250;45.422;11.100;2023-06-01T18:56:12;26.90;65.20
40556;DHT22;26250;45.422;11.100;2023-06-01T18:58:49;26.90;65.50
40556;DHT22;26250;45.422;11.100;2023-06-01T19:01:17;26.80;65.70
40556;DHT22;26250;45.422;11.100;2023-06-01T19:03:47;26.70;66.20
40556;DHT22;26250;45.422;11.100;2023-06-01T19:06:14;26.60;66.70
40556;DHT22;26250;45.422;11.100;2023-06-01T19:08:41;26.50;66.90
40556;DHT22;26250;45.422;11.100;2023-06-01T19:11:09;26.50;67.10
40556;DHT22;26250;45.422;11.100;2023-06-01T19:13:42;26.40;67.70
40556;DHT22;26250;45.422;11.100;2023-06-01T19:16:19;26.40;68.10
40556;DHT22;26250;45.422;11.100;2023-06-01T19:18:53;26.20;67.30
40556;DHT22;26250;45.422;11.100;2023-06-01T19:21:25;26.20;68.20
40556;DHT22;26250;45.422;11.100;2023-06-01T19:24:06;26.00;68.30
40556;DHT22;26250;45.422;11.100;2023-06-01T19:26:39;25.90;67.80
40556;DHT22;26250;45.422;11.100;2023-06-01T19:29:10;26.10;68.00
40556;DHT22;26250;45.422;11.100;2023-06-01T19:31:40;26.00;68.10
40556;DHT22;26250;45.422;11.100;2023-06-01T19:34:09;25.90;68.50
40556;DHT22;26250;45.422;11.100;2023-06-01T19:41:49;25.80;68.20
40556;DHT22;26250;45.422;11.100;2023-06-01T19:44:20;25.80;69.00
40556;DHT22;26250;45.422;11.100;2023-06-01T19:46:47;25.60;69.40
40556;DHT22;26250;45.422;11.100;2023-06-01T19:49:15;25.50;69.90
40556;DHT22;26250;45.422;11.100;2023-06-01T19:51:46;25.40;70.00
40556;DHT22;26250;45.422;11.100;2023-06-01T19:54:22;25.30;69.90
40556;DHT22;26250;45.422;11.100;2023-06-01T19:56:53;25.30;70.20
40556;DHT22;26250;45.422;11.100;2023-06-01T19:59:23;25.30;69.90
40556;DHT22;26250;45.422;11.100;2023-06-01T20:01:51;25.30;70.10
40556;DHT22;26250;45.422;11.100;2023-06-01T20:04:19;25.10;70.40
40556;DHT22;26250;45.422;11.100;2023-06-01T20:06:50;25.00;70.20
40556;DHT22;26250;45.422;11.100;2023-06-01T20:09:21;24.80;71.40
40556;DHT22;26250;45.422;11.100;2023-06-01T20:11:49;24.80;71.70
40556;DHT22;26250;45.422;11.100;2023-06-01T20:16:50;24.70;71.50
40556;DHT22;26250;45.422;11.100;2023-06-01T20:19:17;24.80;71.50
40556;DHT22;26250;45.422;11.100;2023-06-01T20:21:53;24.80;71.00
40556;DHT22;26250;45.422;11.100;2023-06-01T20:24:24;24.80;70.80
40556;DHT22;26250;45.422;11.100;2023-06-01T20:27:00;24.80;70.60
40556;DHT22;26250;45.422;11.100;2023-06-01T20:29:31;25.00;69.50
40556;DHT22;26250;45.422;11.100;2023-06-01T20:32:00;24.90;69.80
40556;DHT22;26250;45.422;11.100;2023-06-01T20:34:30;24.90;69.30
40556;DHT22;26250;45.422;11.100;2023-06-01T20:36:57;24.90;70.00
40556;DHT22;26250;45.422;11.100;2023-06-01T20:39:24;24.90;69.90
40556;DHT22;26250;45.422;11.100;2023-06-01T20:41:52;25.00;70.00
40556;DHT22;26250;45.422;11.100;2023-06-01T20:44:22;25.00;69.90
40556;DHT22;26250;45.422;11.100;2023-06-01T20:46:50;24.90;70.30
40556;DHT22;26250;45.422;11.100;2023-06-01T20:49:26;24.60;71.50
40556;DHT22;26250;45.422;11.100;2023-06-01T20:51:53;24.50;71.10
40556;DHT22;26250;45.422;11.100;2023-06-01T20:54:22;24.40;71.30
40556;DHT22;26250;45.422;11.100;2023-06-01T20:56:53;24.20;72.20
40556;DHT22;26250;45.422;11.100;2023-06-01T20:59:29;24.10;72.50
40556;DHT22;26250;45.422;11.100;2023-06-01T21:02:02;24.10;72.80
40556;DHT22;26250;45.422;11.100;2023-06-01T21:04:33;24.00;73.70
40556;DHT22;26250;45.422;11.100;2023-06-01T21:07:04;23.90;73.90
40556;DHT22;26250;45.422;11.100;2023-06-01T21:09:31;23.80;73.80
40556;DHT22;26250;45.422;11.100;2023-06-01T21:11:58;23.70;74.00
40556;DHT22;26250;45.422;11.100;2023-06-01T21:14:26;23.80;73.80
40556;DHT22;26250;45.422;11.100;2023-06-01T21:16:53;23.80;73.00
40556;DHT22;26250;45.422;11.100;2023-06-01T21:19:20;23.80;73.20
40556;DHT22;26250;45.422;11.100;2023-06-01T21:21:47;23.90;72.40
40556;DHT22;26250;45.422;11.100;2023-06-01T21:24:14;24.10;72.80
40556;DHT22;26250;45.422;11.100;2023-06-01T21:26:41;24.20;72.50
40556;DHT22;26250;45.422;11.100;2023-06-01T21:29:08;24.30;71.90
40556;DHT22;26250;45.422;11.100;2023-06-01T21:31:36;24.20;72.10
40556;DHT22;26250;45.422;11.100;2023-06-01T21:34:03;24.30;71.80
40556;DHT22;26250;45.422;11.100;2023-06-01T21:36:30;24.10;72.80
40556;DHT22;26250;45.422;11.100;2023-06-01T21:38:57;23.80;73.80
40556;DHT22;26250;45.422;11.100;2023-06-01T21:41:24;23.90;73.40
40556;DHT22;26250;45.422;11.100;2023-06-01T21:43:52;23.70;74.50
40556;DHT22;26250;45.422;11.100;2023-06-01T21:46:21;23.60;74.90
40556;DHT22;26250;45.422;11.100;2023-06-01T21:48:48;23.50;74.90
40556;DHT22;26250;45.422;11.100;2023-06-01T21:51:15;23.60;74.90
40556;DHT22;26250;45.422;11.100;2023-06-01T21:53:45;23.30;75.30
40556;DHT22;26250;45.422;11.100;2023-06-01T21:56:12;23.30;75.30
40556;DHT22;26250;45.422;11.100;2023-06-01T21:58:41;23.50;75.00
40556;DHT22;26250;45.422;11.100;2023-06-01T22:01:09;23.30;75.40
40556;DHT22;26250;45.422;11.100;2023-06-01T22:03:36;23.30;75.90
40556;DHT22;26250;45.422;11.100;2023-06-01T22:06:04;23.30;76.00
40556;DHT22;26250;45.422;11.100;2023-06-01T22:08:31;23.40;75.80
40556;DHT22;26250;45.422;11.100;2023-06-01T22:10:58;23.30;76.10
40556;DHT22;26250;45.422;11.100;2023-06-01T22:13:25;23.30;76.60
40556;DHT22;26250;45.422;11.100;2023-06-01T22:15:52;23.10;76.70
40556;DHT22;26250;45.422;11.100;2023-06-01T22:18:19;23.10;76.40
40556;DHT22;26250;45.422;11.100;2023-06-01T22:20:46;23.20;76.80
40556;DHT22;26250;45.422;11.100;2023-06-01T22:23:14;23.10;77.10
40556;DHT22;26250;45.422;11.100;2023-06-01T22:25:41;23.20;77.00
40556;DHT22;26250;45.422;11.100;2023-06-01T22:28:09;23.00;76.90
40556;DHT22;26250;45.422;11.100;2023-06-01T22:30:38;23.10;76.90
40556;DHT22;26250;45.422;11.100;2023-06-01T22:33:06;23.00;76.90
40556;DHT22;26250;45.422;11.100;2023-06-01T22:35:33;23.10;76.60
40556;DHT22;26250;45.422;11.100;2023-06-01T22:38:00;23.30;75.90
40556;DHT22;26250;45.422;11.100;2023-06-01T22:40:27;23.00;76.70
40556;DHT22;26250;45.422;11.100;2023-06-01T22:42:54;22.80;78.00
40556;DHT22;26250;45.422;11.100;2023-06-01T22:45:21;23.00;77.30
40556;DHT22;26250;45.422;11.100;2023-06-01T22:47:48;23.10;78.00
40556;DHT22;26250;45.422;11.100;2023-06-01T22:50:15;23.20;76.50
40556;DHT22;26250;45.422;11.100;2023-06-01T22:52:46;23.00;76.60
40556;DHT22;26250;45.422;11.100;2023-06-01T22:55:14;23.10;76.40
40556;DHT22;26250;45.422;11.100;2023-06-01T22:57:42;23.00;76.70
40556;DHT22;26250;45.422;11.100;2023-06-01T23:00:10;23.10;76.40
40556;DHT22;26250;45.422;11.100;2023-06-01T23:02:37;22.90;77.40
40556;DHT22;26250;45.422;11.100;2023-06-01T23:05:04;22.90;77.50
40556;DHT22;26250;45.422;11.100;2023-06-01T23:07:32;22.90;77.10
40556;DHT22;26250;45.422;11.100;2023-06-01T23:09:59;22.80;77.20
40556;DHT22;26250;45.422;11.100;2023-06-01T23:12:27;22.80;77.10
40556;DHT22;26250;45.422;11.100;2023-06-01T23:14:55;22.90;77.10
40556;DHT22;26250;45.422;11.100;2023-06-01T23:17:22;22.90;76.70
40556;DHT22;26250;45.422;11.100;2023-06-01T23:19:52;23.00;76.50
40556;DHT22;26250;45.422;11.100;2023-06-01T23:22:19;22.90;76.50
40556;DHT22;26250;45.422;11.100;2023-06-01T23:24:47;23.00;76.20
40556;DHT22;26250;45.422;11.100;2023-06-01T23:27:14;23.00;76.70
40556;DHT22;26250;45.422;11.100;2023-06-01T23:29:41;22.90;77.00
40556;DHT22;26250;45.422;11.100;2023-06-01T23:32:09;22.90;77.00
40556;DHT22;26250;45.422;11.100;2023-06-01T23:34:38;23.00;76.50
40556;DHT22;26250;45.422;11.100;2023-06-01T23:37:05;23.10;76.10
40556;DHT22;26250;45.422;11.100;2023-06-01T23:39:32;23.20;75.80
40556;DHT22;26250;45.422;11.100;2023-06-01T23:41:59;23.20;75.80
40556;DHT22;26250;45.422;11.100;2023-06-01T23:44:26;23.20;75.60
40556;DHT22;26250;45.422;11.100;2023-06-01T23:46:54;22.90;76.70
40556;DHT22;26250;45.422;11.100;2023-06-01T23:49:21;22.90;76.70
40556;DHT22;26250;45.422;11.100;2023-06-01T23:51:48;23.00;76.80
40556;DHT22;26250;45.422;11.100;2023-06-01T23:54:15;22.90;76.80
40556;DHT22;26250;45.422;11.100;2023-06-01T23:56:42;22.80;76.90
40556;DHT22;26250;45.422;11.100;2023-06-01T23:59:09;22.90;77.00
